Dousman, WI

11:39 AM CST on January 25, 2015 (GMT -0600)
Opengate | Change Station
CLOSE
Current Station
Personal Weather Station
Location: Oconomowoc, WI
Elevation: 892 ft
Nearby Weather Stations

Elev 892 ft 43.02 °N, 88.45 °W | Updated 1 second ago

Overcast
Overcast
26.2 °F
Feels Like 15 °F
N
13.0
Wind Variable Wind from NNW
Gusts 15.0 mph

Today
High -- | Low -- °F
--% Chance of Precip.
Yesterday
High -- | Low -- °F
Precip. -- in
7:15 AM 4:57 PM
Waxing Crescent, 34% visible
Pressure 29.91 in
Visibility 10.0 miles
Clouds Overcast 4800 ft
Windchill 15 °F
Dew Point -2 °F
Humidity 28%
Rainfall 0.00 in
Snow Depth Not available.
UV 2.0 out of 12
Pollen .10 out of 12
Air Quality Not available.
Flu Activity Not available.
METAR KUES 251645Z 04015G25KT 10SM OVC048 M05/M10 A2991

More Conditions Fewer Conditions

Pressure 29.91 in
Visibility 10.0 miles
Clouds Overcast 4800 ft
Windchill 15 °F
Dew Point -2 °F
Humidity 28%
Rainfall 0.00 in
Snow Depth Not available.
UV 2.0 out of 12
Pollen .10 out of 12
Air Quality Not available.
Flu Activity Not available.
METAR KUES 251645Z 04015G25KT 10SM OVC048 M05/M10 A2991

More Conditions Fewer Conditions

10-Day Weather Forecast

Almanac

Astronomy

Jan. 25, 2015 Rise Set
Actual Time
Civil Twilight
Nautical Twilight
Astronomical Twilight
Moon
Length of Visible Light
Length of Day
Tomorrow will be .
, % of the Moon is Illuminated

Today's Extremes

State Highs State Lows

Community

WunderPhotos

Upload Photos

1,790,001 photos uploaded!

WunderBlogs® & News

Nearby

Air Quality

  Air Quality AQ Index Pollutant
Not available.

Snow Depth

Station Depth Elevation

Earthquake Activity

City Distance Mag. Time & Date
Minimum magnitude displayed is 2.5.

Coastal Water Temperatures

Place Temperature

Nearby Weather Stations